createdAt,value
2019-05-02T00:00:54.298Z,11.40
2019-05-02T00:03:27.170Z,11.33
2019-05-02T00:05:58.763Z,11.33
2019-05-02T00:08:33.192Z,11.25
2019-05-02T00:11:06.180Z,11.29
2019-05-02T00:13:37.854Z,11.26
2019-05-02T00:16:14.223Z,11.11
2019-05-02T00:18:43.550Z,11.11
2019-05-02T00:21:15.592Z,11.23
2019-05-02T00:23:47.749Z,11.03
2019-05-02T00:26:19.421Z,11.16
2019-05-02T00:28:51.049Z,11.14
2019-05-02T00:31:22.949Z,11.19
2019-05-02T00:33:54.815Z,11.23
2019-05-02T00:36:26.537Z,11.13
2019-05-02T00:38:58.479Z,11.18
2019-05-02T00:41:33.113Z,11.21
2019-05-02T00:44:06.073Z,11.11
2019-05-02T00:46:36.213Z,11.21
2019-05-02T00:49:07.701Z,11.15
2019-05-02T00:51:39.573Z,11.16
2019-05-02T00:54:11.632Z,11.23
2019-05-02T00:56:44.080Z,11.27
2019-05-02T00:59:18.020Z,11.16
2019-05-02T01:02:05.369Z,11.08
2019-05-02T01:04:37.884Z,11.05
2019-05-02T01:07:10.590Z,11.04
2019-05-02T01:09:46.772Z,11.04
2019-05-02T01:12:25.745Z,10.93
2019-05-02T01:14:48.939Z,10.99
2019-05-02T01:17:21.071Z,10.96
2019-05-02T01:19:52.934Z,10.89
2019-05-02T01:22:24.540Z,10.80
2019-05-02T01:24:56.041Z,10.87
2019-05-02T01:27:42.596Z,10.85
2019-05-02T01:30:31.988Z,10.94
2019-05-02T01:33:21.053Z,10.83
2019-05-02T01:36:01.768Z,10.83
2019-05-02T01:38:39.429Z,10.96
2019-05-02T01:41:11.376Z,10.85
2019-05-02T01:43:43.413Z,10.97
2019-05-02T01:46:17.148Z,10.90
2019-05-02T01:48:48.867Z,10.81
2019-05-02T01:51:20.763Z,10.87
2019-05-02T01:53:52.497Z,10.89
2019-05-02T01:56:24.119Z,10.86
2019-05-02T01:58:57.783Z,10.81
2019-05-02T02:01:29.424Z,10.73
2019-05-02T02:04:01.349Z,10.75
2019-05-02T02:06:32.945Z,10.72
2019-05-02T02:09:08.441Z,10.62
2019-05-02T02:11:39.953Z,10.64
2019-05-02T02:14:12.770Z,10.58
2019-05-02T02:16:44.966Z,10.61
2019-05-02T02:19:24.157Z,10.68
2019-05-02T02:22:06.650Z,10.63
2019-05-02T02:24:45.583Z,10.68
2019-05-02T02:27:19.973Z,10.75
2019-05-02T02:29:50.788Z,10.73
2019-05-02T02:32:26.792Z,10.77
2019-05-02T02:34:55.994Z,10.75
2019-05-02T02:37:28.789Z,10.72
2019-05-02T02:40:00.783Z,10.77
2019-05-02T02:42:34.195Z,10.76
2019-05-02T02:45:20.933Z,10.68
2019-05-02T02:47:59.470Z,10.64
2019-05-02T02:50:26.073Z,10.64
2019-05-02T02:52:57.830Z,10.62
2019-05-02T02:55:29.404Z,10.65
2019-05-02T02:58:04.706Z,10.75
2019-05-02T03:00:34.686Z,10.69
2019-05-02T03:03:06.268Z,10.70
2019-05-02T03:05:38.121Z,10.76
2019-05-02T03:08:10.154Z,10.67
2019-05-02T03:10:45.184Z,10.71
2019-05-02T03:13:51.193Z,10.71
2019-05-02T03:16:13.856Z,10.66
2019-05-02T03:18:45.626Z,10.63
2019-05-02T03:21:20.817Z,10.52
2019-05-02T03:24:01.567Z,10.51
2019-05-02T03:26:25.195Z,10.51
2019-05-02T03:29:00.185Z,10.46
2019-05-02T03:31:31.701Z,10.58
2019-05-02T03:34:03.229Z,10.56
2019-05-02T03:36:37.074Z,10.47
2019-05-02T03:39:14.731Z,10.47
2019-05-02T03:41:42.078Z,10.49
2019-05-02T03:44:25.197Z,10.52
2019-05-02T03:46:47.377Z,10.61
2019-05-02T03:49:19.107Z,10.57
2019-05-02T03:51:55.842Z,10.49
2019-05-02T03:54:24.858Z,10.58
2019-05-02T03:56:56.733Z,10.56
2019-05-02T03:59:37.254Z,10.55
2019-05-02T04:02:01.729Z,10.63
2019-05-02T04:04:33.602Z,10.68
2019-05-02T04:07:05.610Z,10.70
2019-05-02T04:09:39.434Z,10.69
2019-05-02T04:12:18.521Z,10.74
2019-05-02T04:14:45.810Z,10.65
2019-05-02T04:17:17.630Z,10.53
2019-05-02T04:19:50.144Z,10.62
2019-05-02T04:22:23.421Z,10.64
2019-05-02T04:24:56.876Z,10.74
2019-05-02T04:27:34.057Z,10.76
2019-05-02T04:30:10.900Z,10.70
2019-05-02T04:32:42.777Z,10.74
2019-05-02T04:35:12.427Z,10.86
2019-05-02T04:37:44.054Z,10.95
2019-05-02T04:40:18.226Z,11.04
2019-05-02T04:42:51.218Z,11.18
2019-05-02T04:45:28.763Z,11.24
2019-05-02T04:48:00.818Z,11.34
2019-05-02T04:50:29.596Z,11.32
2019-05-02T04:53:01.448Z,11.37
2019-05-02T04:55:33.682Z,11.53
2019-05-02T04:58:08.326Z,11.68
2019-05-02T05:00:44.817Z,11.90
2019-05-02T05:03:18.185Z,11.93
2019-05-02T05:05:49.020Z,11.95
2019-05-02T05:08:26.349Z,11.73
2019-05-02T05:10:54.461Z,11.67
2019-05-02T05:13:26.499Z,11.80
2019-05-02T05:16:02.853Z,12.01
2019-05-02T05:18:32.374Z,12.01
2019-05-02T05:21:04.023Z,12.13
2019-05-02T05:24:07.703Z,12.25
2019-05-02T05:26:42.966Z,12.28
2019-05-02T05:29:14.061Z,12.36
2019-05-02T05:31:48.354Z,12.44
2019-05-02T05:34:22.867Z,12.63
2019-05-02T05:36:53.394Z,12.76
2019-05-02T05:39:25.032Z,12.83
2019-05-02T05:41:57.836Z,13.09
2019-05-02T05:44:32.608Z,13.19
2019-05-02T05:47:03.317Z,13.34
2019-05-02T05:49:34.833Z,13.50
2019-05-02T05:52:08.042Z,13.62
2019-05-02T05:54:41.988Z,13.54
2019-05-02T05:57:17.477Z,13.69
2019-05-02T05:59:48.567Z,13.85
2019-05-02T06:02:22.897Z,13.87
2019-05-02T06:04:55.373Z,13.97
2019-05-02T06:07:28.182Z,14.22
2019-05-02T06:10:02.392Z,14.43
2019-05-02T06:12:35.607Z,14.50
2019-05-02T06:15:08.418Z,14.60
2019-05-02T06:17:40.266Z,14.59
2019-05-02T06:20:12.330Z,14.67
2019-05-02T06:22:44.497Z,14.68
2019-05-02T06:25:16.974Z,14.65
2019-05-02T06:27:48.705Z,14.77
2019-05-02T06:30:21.070Z,14.73
2019-05-02T06:32:55.060Z,14.75
2019-05-02T06:35:26.528Z,14.84
2019-05-02T06:37:58.305Z,15.07
2019-05-02T06:40:30.106Z,15.20
2019-05-02T06:43:04.294Z,15.42
2019-05-02T06:45:37.724Z,15.59
2019-05-02T06:48:17.210Z,15.63
2019-05-02T06:50:42.686Z,15.62
2019-05-02T06:53:14.537Z,15.70
2019-05-02T06:55:46.258Z,15.76
2019-05-02T06:58:19.579Z,15.89
2019-05-02T07:00:58.061Z,16.06
2019-05-02T07:03:23.661Z,16.04
2019-05-02T07:05:58.862Z,16.10
2019-05-02T07:08:29.007Z,16.15
2019-05-02T07:11:01.278Z,16.18
2019-05-02T07:13:36.391Z,16.26
2019-05-02T07:16:16.244Z,16.31
2019-05-02T07:18:52.199Z,16.38
2019-05-02T07:21:23.985Z,16.44
2019-05-02T07:23:55.983Z,16.38
2019-05-02T07:26:27.569Z,16.61
2019-05-02T07:28:59.148Z,16.78
2019-05-02T07:31:30.940Z,16.87
2019-05-02T07:34:02.871Z,16.66
2019-05-02T07:36:36.467Z,16.92
2019-05-02T07:39:10.836Z,16.99
2019-05-02T07:41:42.549Z,17.03
2019-05-02T07:44:14.268Z,17.17
2019-05-02T07:46:52.074Z,17.23
2019-05-02T07:49:20.821Z,17.22
2019-05-02T07:51:57.491Z,17.34
2019-05-02T07:54:26.804Z,17.45
2019-05-02T07:56:58.722Z,17.69
2019-05-02T07:59:30.475Z,17.72
2019-05-02T08:02:02.383Z,17.77
2019-05-02T08:04:34.206Z,17.86
2019-05-02T08:07:05.986Z,17.69
2019-05-02T08:09:39.141Z,18.13
2019-05-02T08:12:13.189Z,18.18
2019-05-02T08:14:44.859Z,18.29
2019-05-02T08:17:19.122Z,18.46
2019-05-02T08:19:50.394Z,18.37
2019-05-02T08:22:22.420Z,18.46
2019-05-02T08:24:53.885Z,18.37
2019-05-02T08:27:44.604Z,18.27
2019-05-02T08:30:22.387Z,18.41
2019-05-02T08:32:53.969Z,18.42
2019-05-02T08:35:28.134Z,18.32
2019-05-02T08:37:59.620Z,18.42
2019-05-02T08:40:31.494Z,18.64
2019-05-02T08:43:08.620Z,18.69
2019-05-02T08:45:38.152Z,18.67
2019-05-02T08:48:09.953Z,18.69
2019-05-02T08:50:41.803Z,18.92
2019-05-02T08:53:14.263Z,19.04
2019-05-02T08:55:46.673Z,19.08
2019-05-02T08:58:18.394Z,19.22
2019-05-02T09:00:50.139Z,19.23
2019-05-02T09:03:21.703Z,19.13
2019-05-02T09:06:05.319Z,19.37
2019-05-02T09:08:28.053Z,19.56
2019-05-02T09:11:00.046Z,19.60
2019-05-02T09:13:32.991Z,19.65
2019-05-02T09:16:06.019Z,19.57
2019-05-02T09:18:41.049Z,19.65
2019-05-02T09:21:12.472Z,19.79
2019-05-02T09:23:44.102Z,19.85
2019-05-02T09:26:16.126Z,19.95
2019-05-02T09:28:48.312Z,20.15
2019-05-02T09:31:20.179Z,20.12
2019-05-02T09:33:52.090Z,20.45
2019-05-02T09:36:25.316Z,20.38
2019-05-02T09:38:57.690Z,20.15
2019-05-02T09:41:32.504Z,20.42
2019-05-02T09:44:04.132Z,20.33
2019-05-02T09:46:36.002Z,20.38
2019-05-02T09:49:13.441Z,20.56
2019-05-02T09:51:42.318Z,20.97
2019-05-02T09:54:15.052Z,21.16
2019-05-02T09:56:47.352Z,21.33
2019-05-02T09:59:27.648Z,21.12
2019-05-02T10:01:54.680Z,21.37
2019-05-02T10:04:26.438Z,21.02
2019-05-02T10:06:58.211Z,21.52
2019-05-02T10:09:29.879Z,21.15
2019-05-02T10:12:02.055Z,21.14
2019-05-02T10:14:34.123Z,21.30
2019-05-02T10:17:07.416Z,21.54
2019-05-02T10:19:41.241Z,21.73
2019-05-02T10:22:13.010Z,21.72
2019-05-02T10:24:44.614Z,21.96
2019-05-02T10:27:15.874Z,21.50
2019-05-02T10:29:47.489Z,21.67
2019-05-02T10:32:19.313Z,21.83
2019-05-02T10:34:55.100Z,21.93
2019-05-02T10:37:24.512Z,22.09
2019-05-02T10:39:56.223Z,22.07
2019-05-02T10:42:28.034Z,22.09
2019-05-02T10:44:59.816Z,22.22
2019-05-02T10:47:33.106Z,22.11
2019-05-02T10:50:14.785Z,22.15
2019-05-02T10:52:46.466Z,22.25
2019-05-02T10:55:21.689Z,22.29
2019-05-02T10:57:53.615Z,22.30
2019-05-02T11:00:32.503Z,22.38
2019-05-02T11:03:23.155Z,22.25
2019-05-02T11:06:05.576Z,22.58
2019-05-02T11:08:32.165Z,23.00
2019-05-02T11:11:06.126Z,22.63
2019-05-02T11:14:05.942Z,22.63
2019-05-02T11:16:49.092Z,22.60
2019-05-02T11:19:48.976Z,22.72
2019-05-02T11:22:22.661Z,22.78
2019-05-02T11:24:54.275Z,22.48
2019-05-02T11:27:25.988Z,22.68
2019-05-02T11:29:57.770Z,22.77
2019-05-02T11:32:29.355Z,22.62
2019-05-02T11:35:02.816Z,22.27
2019-05-02T11:37:34.178Z,22.06
2019-05-02T11:40:07.766Z,22.24
2019-05-02T11:42:41.626Z,21.65
2019-05-02T11:45:13.420Z,21.23
2019-05-02T11:47:45.302Z,21.53
2019-05-02T11:50:17.038Z,21.25
2019-05-02T11:52:48.719Z,21.64
2019-05-02T11:55:24.599Z,22.07
2019-05-02T11:57:55.174Z,22.41
2019-05-02T12:00:27.825Z,22.45
2019-05-02T12:03:22.521Z,23.29
2019-05-02T12:05:54.070Z,23.77
2019-05-02T12:08:26.202Z,24.05
2019-05-02T12:11:00.963Z,24.26
2019-05-02T12:13:32.325Z,24.55
2019-05-02T12:16:08.571Z,24.98
2019-05-02T12:18:41.880Z,24.92
2019-05-02T12:21:13.935Z,25.02
2019-05-02T12:23:45.696Z,25.71
2019-05-02T12:26:17.456Z,25.86
2019-05-02T12:28:49.302Z,25.71
2019-05-02T12:31:38.885Z,24.46
2019-05-02T12:34:12.014Z,22.77
2019-05-02T12:36:44.188Z,21.87
2019-05-02T12:39:16.031Z,21.12
2019-05-02T12:41:47.867Z,20.40
2019-05-02T12:44:19.779Z,19.81
2019-05-02T12:46:51.886Z,19.53
2019-05-02T12:49:27.697Z,18.95
2019-05-02T12:51:57.667Z,18.91
2019-05-02T12:54:29.324Z,18.82
2019-05-02T12:57:02.173Z,18.50
2019-05-02T12:59:34.230Z,18.93
2019-05-02T13:02:12.084Z,20.43
2019-05-02T13:04:43.617Z,22.04
2019-05-02T13:07:15.292Z,23.31
2019-05-02T13:09:47.268Z,24.10
2019-05-02T13:12:24.036Z,24.57
2019-05-02T13:14:57.239Z,25.30
2019-05-02T13:17:29.499Z,25.18
2019-05-02T13:20:03.931Z,25.71
2019-05-02T13:22:52.704Z,26.17
2019-05-02T13:25:27.274Z,26.25
2019-05-02T13:27:59.086Z,25.97
2019-05-02T13:31:02.488Z,25.15
2019-05-02T13:33:42.780Z,24.69
2019-05-02T13:36:42.317Z,24.95
2019-05-02T13:39:24.591Z,25.03
2019-05-02T13:41:56.376Z,25.42
2019-05-02T13:44:29.948Z,25.74
2019-05-02T13:47:02.695Z,26.30
2019-05-02T13:49:33.770Z,26.25
2019-05-02T13:52:05.384Z,26.71
2019-05-02T13:54:37.899Z,26.68
2019-05-02T13:57:12.024Z,24.72
2019-05-02T13:59:44.454Z,23.37
2019-05-02T14:02:39.178Z,21.93
2019-05-02T14:05:12.881Z,21.26
2019-05-02T14:07:48.263Z,20.59
2019-05-02T14:10:33.710Z,20.29
2019-05-02T14:13:04.196Z,20.02
2019-05-02T14:15:42.174Z,19.47
2019-05-02T14:18:16.254Z,19.24
2019-05-02T14:20:48.311Z,19.10
2019-05-02T14:23:22.153Z,19.03
2019-05-02T14:25:55.262Z,20.14
2019-05-02T14:28:32.265Z,19.91
2019-05-02T14:31:02.211Z,19.52
2019-05-02T14:33:35.575Z,20.55
2019-05-02T14:36:07.597Z,22.47
2019-05-02T14:38:39.324Z,23.73
2019-05-02T14:41:13.187Z,24.74
2019-05-02T14:43:56.559Z,24.96
2019-05-02T14:46:34.027Z,25.22
2019-05-02T14:49:02.941Z,25.60
2019-05-02T14:51:36.688Z,26.12
2019-05-02T14:54:09.404Z,26.55
2019-05-02T14:57:04.445Z,25.76
2019-05-02T14:59:45.626Z,25.47
2019-05-02T15:02:48.938Z,25.53
2019-05-02T15:05:19.436Z,25.22
2019-05-02T15:07:51.950Z,25.27
2019-05-02T15:10:32.209Z,24.14
2019-05-02T15:13:03.997Z,24.14
2019-05-02T15:15:40.889Z,23.47
2019-05-02T15:18:13.462Z,22.14
2019-05-02T15:20:44.058Z,21.36
2019-05-02T15:23:19.697Z,21.01
2019-05-02T15:25:52.461Z,20.48
2019-05-02T15:28:23.024Z,19.86
2019-05-02T15:31:07.590Z,19.55
2019-05-02T15:33:48.030Z,19.21
2019-05-02T15:41:48.162Z,18.94
2019-05-02T15:44:18.913Z,18.70
2019-05-02T15:46:52.450Z,18.55
2019-05-02T15:49:24.023Z,18.40
2019-05-02T15:51:58.132Z,18.47
2019-05-02T15:54:31.847Z,18.42
2019-05-02T15:57:05.816Z,18.42
2019-05-02T15:59:37.833Z,18.32
2019-05-02T16:02:17.681Z,18.29
2019-05-02T16:04:52.131Z,18.22
2019-05-02T16:07:24.772Z,18.18
2019-05-02T16:10:01.189Z,18.22
2019-05-02T16:12:32.099Z,17.99
2019-05-02T16:15:13.234Z,17.89
2019-05-02T16:17:42.336Z,17.95
2019-05-02T16:20:20.205Z,17.96
2019-05-02T16:22:52.457Z,17.90
2019-05-02T16:25:25.921Z,17.80
2019-05-02T16:28:04.610Z,17.78
2019-05-02T16:30:31.909Z,17.59
2019-05-02T16:33:07.942Z,17.38
2019-05-02T16:35:38.874Z,17.30
2019-05-02T16:38:12.294Z,17.08
2019-05-02T16:40:44.607Z,16.98
2019-05-02T16:43:16.595Z,17.02
2019-05-02T16:45:48.507Z,16.93
2019-05-02T16:48:23.594Z,16.82
2019-05-02T16:50:53.631Z,16.79
2019-05-02T16:53:26.349Z,16.85
2019-05-02T16:56:02.690Z,16.74
2019-05-02T16:58:33.559Z,16.83
2019-05-02T17:01:06.383Z,16.78
2019-05-02T17:03:38.069Z,16.83
2019-05-02T17:06:09.839Z,16.84
2019-05-02T17:09:02.211Z,16.90
2019-05-02T17:11:37.432Z,16.83
2019-05-02T17:14:11.938Z,16.89
2019-05-02T17:16:47.201Z,16.87
2019-05-02T17:19:16.995Z,16.84
2019-05-02T17:21:54.777Z,16.90
2019-05-02T17:24:26.116Z,16.87
2019-05-02T17:26:56.507Z,16.68
2019-05-02T17:29:29.413Z,16.74
2019-05-02T17:32:02.190Z,16.62
2019-05-02T17:34:36.796Z,16.68
2019-05-02T17:37:11.471Z,16.52
2019-05-02T17:39:42.709Z,16.38
2019-05-02T17:42:16.993Z,16.41
2019-05-02T17:44:51.862Z,16.33
2019-05-02T17:47:21.465Z,16.16
2019-05-02T17:49:55.439Z,16.06
2019-05-02T17:52:42.742Z,16.02
2019-05-02T17:55:14.988Z,15.94
2019-05-02T17:57:46.530Z,15.93
2019-05-02T18:00:22.274Z,15.87
2019-05-02T18:02:54.638Z,15.78
2019-05-02T18:05:31.277Z,15.65
2019-05-02T18:07:59.907Z,15.47
2019-05-02T18:10:32.294Z,15.37
2019-05-02T18:13:12.330Z,15.33
2019-05-02T18:15:43.926Z,15.25
2019-05-02T18:18:15.866Z,15.25
2019-05-02T18:20:47.469Z,15.13
2019-05-02T18:23:24.088Z,15.06
2019-05-02T18:25:57.380Z,15.12
2019-05-02T18:28:26.963Z,15.17
2019-05-02T18:31:02.735Z,15.09
2019-05-02T18:33:40.535Z,15.12
2019-05-02T18:36:09.295Z,15.05
2019-05-02T18:38:41.766Z,14.97
2019-05-02T18:41:14.058Z,15.10
2019-05-02T18:43:48.802Z,15.07
2019-05-02T18:46:22.298Z,15.13
2019-05-02T18:48:54.450Z,15.09
2019-05-02T18:51:26.440Z,15.10
2019-05-02T18:54:04.259Z,14.89
2019-05-02T18:56:34.271Z,14.61
2019-05-02T18:59:06.807Z,14.41
2019-05-02T19:01:39.766Z,14.10
2019-05-02T19:04:17.344Z,13.78
2019-05-02T19:06:51.925Z,13.56
2019-05-02T19:09:28.732Z,13.41
2019-05-02T19:12:05.378Z,13.38
2019-05-02T19:14:33.205Z,13.26
2019-05-02T19:17:07.303Z,13.10
2019-05-02T19:19:41.788Z,12.89
2019-05-02T19:22:17.058Z,12.77
2019-05-02T19:24:47.004Z,12.67
2019-05-02T19:27:38.019Z,12.71
2019-05-02T19:30:13.262Z,12.72
2019-05-02T19:32:45.269Z,12.68
2019-05-02T19:35:17.921Z,12.69
2019-05-02T19:37:52.483Z,12.60
2019-05-02T19:40:28.207Z,12.41
2019-05-02T19:43:05.951Z,12.19
2019-05-02T19:45:35.177Z,12.18
2019-05-02T19:48:09.612Z,12.19
2019-05-02T19:50:44.019Z,12.23
2019-05-02T19:53:18.378Z,12.25
2019-05-02T19:55:48.811Z,12.22
2019-05-02T19:58:20.578Z,12.04
2019-05-02T20:00:52.720Z,12.02
2019-05-02T20:03:26.217Z,11.91
2019-05-02T20:06:02.541Z,11.82
2019-05-02T20:08:32.726Z,11.81
2019-05-02T20:11:04.657Z,11.75
2019-05-02T20:13:36.452Z,11.75
2019-05-02T20:16:36.579Z,11.68
2019-05-02T20:19:09.591Z,11.63
2019-05-02T20:22:02.908Z,11.67
2019-05-02T20:24:55.291Z,11.73
2019-05-02T20:27:28.760Z,11.71
2019-05-02T20:30:02.936Z,11.85
2019-05-02T20:32:35.016Z,11.97
2019-05-02T20:35:07.261Z,11.99
2019-05-02T20:37:39.294Z,11.97
2019-05-02T20:40:26.234Z,11.85
2019-05-02T20:42:58.274Z,11.75
2019-05-02T20:45:32.142Z,11.57
2019-05-02T20:48:03.425Z,11.54
2019-05-02T20:50:35.057Z,11.60
2019-05-02T20:53:07.226Z,11.57
2019-05-02T20:55:39.024Z,11.44
2019-05-02T20:58:13.826Z,11.36
2019-05-02T21:00:46.115Z,11.06
2019-05-02T21:03:18.042Z,10.94
2019-05-02T21:05:58.842Z,10.85
2019-05-02T21:08:52.842Z,10.78
2019-05-02T21:11:25.752Z,10.74
2019-05-02T21:13:57.652Z,10.65
2019-05-02T21:16:29.459Z,10.65
2019-05-02T21:19:02.222Z,10.60
2019-05-02T21:21:35.420Z,10.61
2019-05-02T21:24:07.248Z,10.45
2019-05-02T21:26:38.979Z,10.36
2019-05-02T21:29:12.149Z,10.15
2019-05-02T21:31:44.281Z,10.15
2019-05-02T21:34:16.272Z,10.03
2019-05-02T21:36:48.174Z,9.95
2019-05-02T21:39:19.985Z,9.87
2019-05-02T21:41:52.025Z,9.79
2019-05-02T21:44:23.639Z,9.78
2019-05-02T21:46:55.664Z,9.71
2019-05-02T21:49:44.964Z,9.72
2019-05-02T21:52:23.445Z,9.86
2019-05-02T21:55:02.821Z,10.06
2019-05-02T21:57:34.724Z,10.16
2019-05-02T22:00:11.674Z,10.15
2019-05-02T22:02:45.223Z,10.09
2019-05-02T22:05:18.378Z,9.90
2019-05-02T22:07:52.041Z,9.83
2019-05-02T22:10:23.685Z,9.90
2019-05-02T22:12:55.333Z,9.81
2019-05-02T22:15:27.214Z,9.75
2019-05-02T22:17:59.092Z,9.84
2019-05-02T22:20:32.094Z,10.00
2019-05-02T22:23:04.170Z,10.02
2019-05-02T22:25:36.155Z,10.26
2019-05-02T22:28:07.770Z,10.35
2019-05-02T22:30:39.741Z,10.44
2019-05-02T22:33:11.878Z,10.41
2019-05-02T22:35:43.651Z,10.54
2019-05-02T22:38:32.167Z,10.54
2019-05-02T22:41:04.040Z,10.27
2019-05-02T22:43:35.785Z,10.08
2019-05-02T22:46:09.266Z,9.81
2019-05-02T22:48:42.318Z,9.72
2019-05-02T22:51:13.167Z,9.56
2019-05-02T22:53:44.591Z,9.48
2019-05-02T22:56:16.455Z,9.41
2019-05-02T22:58:51.465Z,9.64
2019-05-02T23:01:23.151Z,9.62
2019-05-02T23:03:54.967Z,9.76
2019-05-02T23:06:26.704Z,9.75
2019-05-02T23:08:58.474Z,9.86
2019-05-02T23:11:30.507Z,9.87
2019-05-02T23:14:02.396Z,9.92
2019-05-02T23:16:34.627Z,9.74
2019-05-02T23:19:06.500Z,9.73
2019-05-02T23:21:38.584Z,9.84
2019-05-02T23:24:38.359Z,9.60
2019-05-02T23:27:23.686Z,9.57
2019-05-02T23:29:55.400Z,9.64
2019-05-02T23:32:27.246Z,9.62
2019-05-02T23:34:59.177Z,9.46
2019-05-02T23:37:32.494Z,9.45
2019-05-02T23:40:03.282Z,9.55
2019-05-02T23:42:35.002Z,9.58
2019-05-02T23:45:06.752Z,9.43
2019-05-02T23:47:38.734Z,9.44
2019-05-02T23:50:12.201Z,9.48
2019-05-02T23:52:44.218Z,9.44
2019-05-02T23:55:15.969Z,9.37
2019-05-02T23:57:47.713Z,9.33
